Time,TemperatureF,DewpointF,PressureIn,WindDirection,WindDirectionDegrees,WindSpeedMPH,WindSpeedGustMPH,Humidity,HourlyPrecipIn,Conditions,Clouds,dailyrainin,SoftwareType,DateUTC
2013-01-30 00:04:00,30.1,24.3,29.88,South,180,0.4,1.1,79,0.00,,,0.00,WUHU216HW,2013-01-30 07:04:00,
2013-01-30 00:15:00,29.9,24.1,29.88,SW,225,1.8,1.8,79,0.00,,,0.00,WUHU216HW,2013-01-30 07:15:00,
2013-01-30 00:26:00,29.9,24.1,29.87,SW,225,1.8,2.5,79,0.00,,,0.00,WUHU216HW,2013-01-30 07:26:00,
2013-01-30 00:36:00,29.5,23.8,29.87,SSW,203,0.4,2.9,79,0.00,,,0.00,WUHU216HW,2013-01-30 07:36:00,
2013-01-30 00:46:00,29.5,24.1,29.87,SSE,158,2.5,3.4,80,0.00,,,0.00,WUHU216HW,2013-01-30 07:46:00,
2013-01-30 00:56:00,29.3,23.9,29.87,South,180,2.5,2.5,80,0.00,,,0.00,WUHU216HW,2013-01-30 07:56:00,
2013-01-30 01:06:00,29.3,23.9,29.87,SSE,158,1.6,2.7,80,0.00,,,0.00,WUHU216HW,2013-01-30 08:06:00,
2013-01-30 01:16:00,29.5,24.1,29.87,SW,225,0.9,2.2,80,0.00,,,0.00,WUHU216HW,2013-01-30 08:16:00,
2013-01-30 01:26:00,29.3,23.9,29.87,WNW,293,0.2,2.9,80,0.00,,,0.00,WUHU216HW,2013-01-30 08:26:00,
2013-01-30 01:36:00,29.2,24.0,29.88,NE,45,0.7,1.8,81,0.00,,,0.00,WUHU216HW,2013-01-30 08:36:00,
2013-01-30 01:47:00,29.3,24.2,29.87,ESE,113,0.7,1.1,81,0.00,,,0.00,WUHU216HW,2013-01-30 08:47:00,
2013-01-30 01:57:00,29.3,24.2,29.87,SE,135,0.7,1.1,81,0.00,,,0.00,WUHU216HW,2013-01-30 08:57:00,
2013-01-30 02:07:00,29.5,24.4,29.87,East,90,0.4,1.3,81,0.00,,,0.00,WUHU216HW,2013-01-30 09:07:00,
2013-01-30 02:17:00,29.5,24.4,29.87,North,0,0.7,1.8,81,0.00,,,0.00,WUHU216HW,2013-01-30 09:17:00,
2013-01-30 02:27:00,29.2,24.0,29.87,North,0,0.4,1.1,81,0.00,,,0.00,WUHU216HW,2013-01-30 09:27:00,
2013-01-30 02:37:00,29.0,23.9,29.86,WNW,293,0.0,2.0,81,0.00,,,0.00,WUHU216HW,2013-01-30 09:37:00,
2013-01-30 02:48:00,28.6,24.1,29.86,WNW,293,1.8,3.1,83,0.00,,,0.00,WUHU216HW,2013-01-30 09:48:00,
2013-01-30 02:58:00,28.6,24.1,29.86,ENE,68,0.4,2.5,83,0.00,,,0.00,WUHU216HW,2013-01-30 09:58:00,
2013-01-30 03:08:00,28.4,24.0,29.86,West,270,1.1,1.8,83,0.00,,,0.00,WUHU216HW,2013-01-30 10:08:00,
2013-01-30 03:18:00,28.4,24.0,29.86,West,270,0.9,2.5,83,0.00,,,0.00,WUHU216HW,2013-01-30 10:18:00,
2013-01-30 03:28:00,28.4,24.0,29.85,WNW,293,0.0,2.5,83,0.00,,,0.00,WUHU216HW,2013-01-30 10:28:00,
2013-01-30 03:38:00,28.6,24.1,29.85,North,0,0.0,1.1,83,0.00,,,0.00,WUHU216HW,2013-01-30 10:38:00,
2013-01-30 03:48:00,28.8,24.6,29.84,SSW,203,0.4,2.9,84,0.00,,,0.00,WUHU216HW,2013-01-30 10:48:00,
2013-01-30 03:59:00,28.6,24.4,29.84,WSW,248,2.5,4.0,84,0.00,,,0.00,WUHU216HW,2013-01-30 10:59:00,
2013-01-30 04:09:00,28.6,24.4,29.84,SW,225,2.7,4.0,84,0.00,,,0.00,WUHU216HW,2013-01-30 11:09:00,
2013-01-30 04:19:00,28.6,24.4,29.84,NW,315,0.9,3.1,84,0.00,,,0.00,WUHU216HW,2013-01-30 11:19:00,
2013-01-30 04:30:00,28.6,24.4,29.84,North,0,0.9,2.9,84,0.00,,,0.00,WUHU216HW,2013-01-30 11:30:00,
2013-01-30 04:40:00,28.4,24.2,29.86,NW,315,1.8,2.5,84,0.00,,,0.00,WUHU216HW,2013-01-30 11:40:00,
2013-01-30 04:50:00,28.4,24.2,29.85,WNW,293,0.0,2.5,84,0.00,,,0.00,WUHU216HW,2013-01-30 11:50:00,
2013-01-30 05:00:00,28.4,24.5,29.85,ENE,68,1.6,1.6,85,0.00,,,0.00,WUHU216HW,2013-01-30 12:00:00,
2013-01-30 05:10:00,28.4,24.5,29.85,ENE,68,1.3,2.7,85,0.00,,,0.00,WUHU216HW,2013-01-30 12:10:00,
2013-01-30 05:20:00,28.4,24.5,29.86,SSW,203,0.0,7.4,85,0.00,,,0.00,WUHU216HW,2013-01-30 12:20:00,
2013-01-30 05:30:00,28.4,24.8,29.85,ENE,68,4.3,6.3,86,0.00,,,0.00,WUHU216HW,2013-01-30 12:30:00,
2013-01-30 05:41:00,28.4,24.8,29.86,NNE,23,3.6,6.3,86,0.00,,,0.00,WUHU216HW,2013-01-30 12:41:00,
2013-01-30 05:51:00,28.1,24.1,29.86,North,0,1.6,4.9,85,0.00,,,0.00,WUHU216HW,2013-01-30 12:51:00,
2013-01-30 06:02:00,28.3,24.6,29.87,North,0,2.9,4.0,86,0.00,,,0.00,WUHU216HW,2013-01-30 13:02:00,
2013-01-30 06:12:00,28.1,24.4,29.87,NNW,338,1.1,3.4,86,0.00,,,0.00,WUHU216HW,2013-01-30 13:12:00,
2013-01-30 06:22:00,28.3,24.6,29.86,NNE,23,1.6,1.8,86,0.00,,,0.00,WUHU216HW,2013-01-30 13:22:00,
2013-01-30 06:33:00,28.3,24.6,29.86,NNE,23,1.6,2.2,86,0.00,,,0.00,WUHU216HW,2013-01-30 13:33:00,
2013-01-30 06:44:00,28.4,24.8,29.86,WSW,248,2.0,2.9,86,0.00,,,0.00,WUHU216HW,2013-01-30 13:44:00,
2013-01-30 06:54:00,28.6,24.9,29.86,SW,225,0.4,3.1,86,0.00,,,0.00,WUHU216HW,2013-01-30 13:54:00,
2013-01-30 07:04:00,28.6,24.9,29.86,SW,225,1.8,2.2,86,0.00,,,0.00,WUHU216HW,2013-01-30 14:04:00,
2013-01-30 07:14:00,28.8,25.1,29.84,SE,135,2.2,3.6,86,0.00,,,0.00,WUHU216HW,2013-01-30 14:14:00,
2013-01-30 07:24:00,29.2,25.7,29.84,East,90,0.7,3.6,87,0.00,,,0.00,WUHU216HW,2013-01-30 14:24:00,
2013-01-30 07:34:00,29.3,25.7,29.84,South,180,0.4,2.7,86,0.00,,,0.00,WUHU216HW,2013-01-30 14:34:00,
2013-01-30 07:45:00,29.3,25.7,29.85,NNW,338,2.0,3.8,86,0.00,,,0.00,WUHU216HW,2013-01-30 14:45:00,
2013-01-30 07:55:00,29.0,25.6,29.86,West,270,2.5,3.6,87,0.00,,,0.00,WUHU216HW,2013-01-30 14:55:00,
2013-01-30 08:05:00,28.6,24.9,29.87,WNW,293,0.9,4.5,86,0.00,,,0.00,WUHU216HW,2013-01-30 15:05:00,
2013-01-30 08:15:00,28.6,25.2,29.86,East,90,0.4,3.1,87,0.00,,,0.00,WUHU216HW,2013-01-30 15:15:00,
2013-01-30 08:25:00,28.8,25.4,29.86,ESE,113,0.0,2.5,87,0.00,,,0.00,WUHU216HW,2013-01-30 15:25:00,
2013-01-30 08:36:00,29.0,25.3,29.85,SE,135,1.8,1.8,86,0.00,,,0.00,WUHU216HW,2013-01-30 15:36:00,
2013-01-30 08:46:00,29.2,25.7,29.85,West,270,0.0,1.1,87,0.00,,,0.00,WUHU216HW,2013-01-30 15:46:00,
2013-01-30 08:56:00,29.5,25.8,29.85,WSW,248,2.2,2.2,86,0.00,,,0.00,WUHU216HW,2013-01-30 15:56:00,
2013-01-30 09:06:00,29.5,25.8,29.86,SE,135,1.3,1.3,86,0.00,,,0.00,WUHU216HW,2013-01-30 16:06:00,
2013-01-30 09:16:00,29.9,26.2,29.86,East,90,1.8,2.0,86,0.00,,,0.00,WUHU216HW,2013-01-30 16:16:00,
2013-01-30 09:26:00,30.1,26.6,29.87,NE,45,1.8,3.1,87,0.00,,,0.00,WUHU216HW,2013-01-30 16:26:00,
2013-01-30 09:36:00,30.2,26.6,29.86,ESE,113,0.4,6.3,86,0.00,,,0.00,WUHU216HW,2013-01-30 16:36:00,
2013-01-30 09:46:00,30.4,26.7,29.86,NNE,23,3.1,4.7,86,0.00,,,0.00,WUHU216HW,2013-01-30 16:46:00,
2013-01-30 09:57:00,30.6,26.9,29.86,ENE,68,3.4,3.4,86,0.00,,,0.00,WUHU216HW,2013-01-30 16:57:00,
2013-01-30 10:07:00,31.1,27.5,29.85,NE,45,0.9,1.3,86,0.00,,,0.00,WUHU216HW,2013-01-30 17:07:00,
2013-01-30 10:18:00,32.0,28.4,29.85,ESE,113,1.6,3.4,86,0.00,,,0.00,WUHU216HW,2013-01-30 17:18:00,
2013-01-30 10:28:00,32.8,28.7,29.85,WNW,293,0.9,3.6,85,0.00,,,0.00,WUHU216HW,2013-01-30 17:28:00,
2013-01-30 10:39:00,33.5,29.1,29.85,West,270,0.9,2.7,84,0.00,,,0.00,WUHU216HW,2013-01-30 17:39:00,
2013-01-30 10:49:00,33.8,29.2,29.86,North,0,0.4,6.3,83,0.00,,,0.00,WUHU216HW,2013-01-30 17:49:00,
2013-01-30 11:00:00,34.2,29.5,29.86,ESE,113,1.8,4.0,83,0.00,,,0.00,WUHU216HW,2013-01-30 18:00:00,
2013-01-30 11:11:00,34.9,29.6,29.86,NW,315,3.4,4.7,81,0.00,,,0.00,WUHU216HW,2013-01-30 18:11:00,
2013-01-30 11:21:00,35.3,30.0,29.86,SE,135,0.9,2.7,81,0.00,,,0.00,WUHU216HW,2013-01-30 18:21:00,
2013-01-30 11:31:00,35.8,30.2,29.86,North,0,2.7,2.7,80,0.00,,,0.00,WUHU216HW,2013-01-30 18:31:00,
2013-01-30 11:41:00,36.5,31.0,29.86,NW,315,0.9,2.2,80,0.00,,,0.00,WUHU216HW,2013-01-30 18:41:00,
2013-01-30 11:51:00,37.3,31.1,29.86,East,90,1.3,3.4,78,0.00,,,0.00,WUHU216HW,2013-01-30 18:51:00,
2013-01-30 12:03:00,38.7,32.1,29.86,North,0,0.9,1.8,77,0.00,,,0.00,WUHU216HW,2013-01-30 19:03:00,
2013-01-30 12:15:00,38.9,32.0,29.86,East,90,1.3,3.4,76,0.00,,,0.00,WUHU216HW,2013-01-30 19:15:00,
2013-01-30 12:26:00,39.4,32.1,29.87,ENE,68,2.7,2.7,75,0.00,,,0.00,WUHU216HW,2013-01-30 19:26:00,
2013-01-30 12:36:00,39.6,32.0,29.86,East,90,0.7,4.7,74,0.00,,,0.00,WUHU216HW,2013-01-30 19:36:00,
2013-01-30 12:46:00,40.1,32.5,29.86,East,90,2.5,2.7,74,0.00,,,0.00,WUHU216HW,2013-01-30 19:46:00,
2013-01-30 12:59:00,40.7,32.3,29.87,ENE,68,3.4,4.0,72,0.00,,,0.00,WUHU216HW,2013-01-30 19:59:00,
2013-01-30 13:09:00,41.0,33.0,29.86,East,90,1.1,3.1,73,0.00,,,0.00,WUHU216HW,2013-01-30 20:09:00,
2013-01-30 13:19:00,41.6,33.0,29.86,ESE,113,1.1,4.3,71,0.00,,,0.00,WUHU216HW,2013-01-30 20:19:00,
2013-01-30 13:29:00,42.1,33.5,29.86,ESE,113,1.8,2.5,71,0.00,,,0.00,WUHU216HW,2013-01-30 20:29:00,
2013-01-30 13:39:00,42.1,33.1,29.86,ESE,113,1.1,2.5,70,0.00,,,0.00,WUHU216HW,2013-01-30 20:39:00,
2013-01-30 13:50:00,42.3,33.7,29.86,East,90,0.0,3.1,71,0.00,,,0.00,WUHU216HW,2013-01-30 20:50:00,
2013-01-30 14:00:00,42.3,33.3,29.86,ESE,113,0.7,2.7,70,0.00,,,0.00,WUHU216HW,2013-01-30 21:00:00,
2013-01-30 14:11:00,42.5,33.5,29.86,NE,45,1.1,2.0,70,0.00,,,0.00,WUHU216HW,2013-01-30 21:11:00,
2013-01-30 14:21:00,42.3,33.7,29.86,ENE,68,1.6,1.8,71,0.00,,,0.00,WUHU216HW,2013-01-30 21:21:00,
2013-01-30 14:32:00,42.5,33.5,29.86,ESE,113,3.8,3.8,70,0.00,,,0.00,WUHU216HW,2013-01-30 21:32:00,
2013-01-30 14:43:00,42.1,33.1,29.87,SE,135,0.2,3.4,70,0.00,,,0.00,WUHU216HW,2013-01-30 21:43:00,
2013-01-30 14:54:00,41.8,32.8,29.86,SSW,203,1.1,4.5,70,0.00,,,0.00,WUHU216HW,2013-01-30 21:54:00,
2013-01-30 15:05:00,41.6,32.2,29.87,WNW,293,7.8,7.8,69,0.00,,,0.00,WUHU216HW,2013-01-30 22:05:00,
2013-01-30 15:16:00,41.4,32.1,29.87,West,270,7.2,7.8,69,0.00,,,0.00,WUHU216HW,2013-01-30 22:16:00,
2013-01-30 15:26:00,41.2,31.9,29.87,WSW,248,1.6,8.1,69,0.00,,,0.00,WUHU216HW,2013-01-30 22:26:00,
2013-01-30 15:36:00,41.4,32.1,29.87,SW,225,6.7,6.7,69,0.00,,,0.00,WUHU216HW,2013-01-30 22:36:00,
2013-01-30 15:46:00,41.0,31.7,29.87,SSW,203,0.7,6.9,69,0.00,,,0.00,WUHU216HW,2013-01-30 22:46:00,
2013-01-30 15:56:00,41.0,31.7,29.88,ENE,68,0.4,4.5,69,0.00,,,0.00,WUHU216HW,2013-01-30 22:56:00,
2013-01-30 16:06:00,40.9,31.5,29.88,North,0,3.8,3.8,69,0.00,,,0.00,WUHU216HW,2013-01-30 23:06:00,
2013-01-30 16:16:00,40.7,31.3,29.89,ENE,68,1.6,4.3,69,0.00,,,0.00,WUHU216HW,2013-01-30 23:16:00,
2013-01-30 16:26:00,40.5,31.5,29.89,ESE,113,1.3,2.7,70,0.00,,,0.00,WUHU216HW,2013-01-30 23:26:00,
2013-01-30 16:37:00,40.3,31.3,29.89,ESE,113,1.8,1.8,70,0.00,,,0.00,WUHU216HW,2013-01-30 23:37:00,
2013-01-30 16:47:00,40.0,31.3,29.89,SE,135,1.1,4.0,71,0.00,,,0.00,WUHU216HW,2013-01-30 23:47:00,
2013-01-30 16:57:00,39.8,31.2,29.89,SSE,158,2.9,4.5,71,0.00,,,0.00,WUHU216HW,2013-01-30 23:57:00,
2013-01-30 17:07:00,39.2,31.0,29.89,SW,225,3.1,4.0,72,0.00,,,0.00,WUHU216HW,2013-01-31 00:07:00,
2013-01-30 17:17:00,39.2,31.2,29.89,NW,315,0.0,2.2,73,0.00,,,0.00,WUHU216HW,2013-01-31 00:17:00,
2013-01-30 17:27:00,39.4,31.8,29.89,ENE,68,1.3,1.8,74,0.00,,,0.00,WUHU216HW,2013-01-31 00:27:00,
2013-01-30 17:37:00,39.6,32.0,29.90,NE,45,4.0,4.0,74,0.00,,,0.00,WUHU216HW,2013-01-31 00:37:00,
2013-01-30 17:47:00,39.6,32.0,29.89,ESE,113,2.2,3.8,74,0.00,,,0.00,WUHU216HW,2013-01-31 00:47:00,
2013-01-30 17:57:00,39.4,31.8,29.90,SE,135,2.0,2.5,74,0.00,,,0.00,WUHU216HW,2013-01-31 00:57:00,
2013-01-30 18:07:00,39.6,32.0,29.90,South,180,2.2,4.0,74,0.00,,,0.00,WUHU216HW,2013-01-31 01:07:00,
2013-01-30 18:18:00,40.1,32.1,29.90,WSW,248,1.8,3.6,73,0.00,,,0.00,WUHU216HW,2013-01-31 01:18:00,
2013-01-30 18:28:00,40.5,32.1,29.90,NNW,338,0.0,3.4,72,0.00,,,0.00,WUHU216HW,2013-01-31 01:28:00,
2013-01-30 18:38:00,40.0,32.0,29.91,SE,135,0.0,1.6,73,0.00,,,0.00,WUHU216HW,2013-01-31 01:38:00,
2013-01-30 18:49:00,39.2,31.2,29.90,SE,135,1.8,2.5,73,0.00,,,0.00,WUHU216HW,2013-01-31 01:49:00,
2013-01-30 19:00:00,39.2,31.2,29.90,ESE,113,2.5,4.3,73,0.00,,,0.00,WUHU216HW,2013-01-31 02:00:00,
2013-01-30 19:10:00,39.1,31.2,29.91,SE,135,2.5,2.5,73,0.00,,,0.00,WUHU216HW,2013-01-31 02:10:00,
2013-01-30 19:20:00,39.1,30.8,29.91,ESE,113,1.8,3.4,72,0.00,,,0.00,WUHU216HW,2013-01-31 02:20:00,
2013-01-30 19:30:00,39.1,31.2,29.91,East,90,1.6,3.4,73,0.00,,,0.00,WUHU216HW,2013-01-31 02:30:00,
2013-01-30 19:40:00,38.9,31.0,29.91,SSW,203,0.0,2.9,73,0.00,,,0.00,WUHU216HW,2013-01-31 02:40:00,
2013-01-30 19:50:00,38.9,30.6,29.91,SSW,203,0.0,1.1,72,0.00,,,0.00,WUHU216HW,2013-01-31 02:50:00,
2013-01-30 20:00:00,38.9,30.2,29.91,NW,315,4.5,4.5,71,0.00,,,0.00,WUHU216HW,2013-01-31 03:00:00,
2013-01-30 20:11:00,39.1,30.4,29.91,NE,45,1.1,2.5,71,0.00,,,0.00,WUHU216HW,2013-01-31 03:11:00,
2013-01-30 20:22:00,39.1,30.4,29.91,WSW,248,1.3,2.5,71,0.00,,,0.00,WUHU216HW,2013-01-31 03:22:00,
2013-01-30 20:32:00,38.9,30.2,29.91,ENE,68,0.4,0.7,71,0.00,,,0.00,WUHU216HW,2013-01-31 03:32:00,
2013-01-30 20:42:00,38.9,30.2,29.91,East,90,0.0,2.5,71,0.00,,,0.00,WUHU216HW,2013-01-31 03:42:00,
2013-01-30 20:52:00,38.9,30.2,29.92,NNE,23,0.0,2.2,71,0.00,,,0.00,WUHU216HW,2013-01-31 03:52:00,
2013-01-30 21:02:00,38.7,30.1,29.92,SSW,203,0.0,3.1,71,0.00,,,0.00,WUHU216HW,2013-01-31 04:02:00,
2013-01-30 21:12:00,38.7,30.1,29.92,WNW,293,1.3,3.4,71,0.00,,,0.00,WUHU216HW,2013-01-31 04:12:00,
2013-01-30 21:22:00,38.7,30.1,29.92,ESE,113,0.0,1.8,71,0.00,,,0.00,WUHU216HW,2013-01-31 04:22:00,
2013-01-30 21:33:00,38.7,30.1,29.92,East,90,0.4,2.0,71,0.00,,,0.00,WUHU216HW,2013-01-31 04:33:00,
2013-01-30 21:43:00,38.7,30.1,29.92,SSW,203,2.5,2.5,71,0.00,,,0.00,WUHU216HW,2013-01-31 04:43:00,
2013-01-30 21:53:00,38.5,30.0,29.92,West,270,0.4,1.8,71,0.00,,,0.00,WUHU216HW,2013-01-31 04:53:00,
2013-01-30 22:05:00,39.1,30.1,29.92,WNW,293,7.6,7.6,70,0.00,,,0.00,WUHU216HW,2013-01-31 05:05:00,
2013-01-30 22:16:00,40.0,30.6,29.93,NNW,338,3.1,6.3,69,0.00,,,0.00,WUHU216HW,2013-01-31 05:16:00,
2013-01-30 22:26:00,39.6,30.3,29.93,WSW,248,1.3,4.0,69,0.00,,,0.00,WUHU216HW,2013-01-31 05:26:00,
2013-01-30 22:36:00,39.2,30.2,29.93,ENE,68,1.1,1.1,70,0.00,,,0.00,WUHU216HW,2013-01-31 05:36:00,
2013-01-30 22:46:00,39.1,30.4,29.93,North,0,0.0,2.0,71,0.00,,,0.00,WUHU216HW,2013-01-31 05:46:00,
2013-01-30 22:57:00,39.2,30.6,29.93,WNW,293,2.5,6.7,71,0.00,,,0.00,WUHU216HW,2013-01-31 05:57:00,
2013-01-30 23:07:00,39.4,30.8,29.93,West,270,5.1,6.3,71,0.00,,,0.00,WUHU216HW,2013-01-31 06:07:00,
2013-01-30 23:17:00,40.0,31.0,29.93,West,270,10.7,10.7,70,0.00,,,0.00,WUHU216HW,2013-01-31 06:17:00,
2013-01-30 23:27:00,40.0,31.0,29.94,NW,315,5.1,9.8,70,0.00,,,0.00,WUHU216HW,2013-01-31 06:27:00,
2013-01-30 23:37:00,40.0,31.0,29.94,West,270,4.5,6.9,70,0.00,,,0.00,WUHU216HW,2013-01-31 06:37:00,
2013-01-30 23:47:00,40.0,31.0,29.94,WNW,293,4.7,6.9,70,0.00,,,0.00,WUHU216HW,2013-01-31 06:47:00,
2013-01-30 23:58:00,40.1,30.4,29.94,WNW,293,13.6,15.0,68,0.00,,,0.00,WUHU216HW,2013-01-31 06:58:00,